Time;durP1;ratioP1;P1;durP2;ratioP2;P2;SDS_P1;SDS_P2;PMS_P1;PMS_P2;Temp;Humidity;BMP_temperature;BMP_pressure;BME280_temperature;BME280_humidity;BME280_pressure;Samples;Min_cycle;Max_cycle;Signal;HPM_P1;HPM_P2
2023/10/30 00:00:07;;;;;;;4.77;3.57;;;11.40;99.90;;;;;;5052448;28;20175;-72
2023/10/30 00:02:36;;;;;;;6.37;3.37;;;11.40;99.90;;;;;;5051676;28;20178;-71
2023/10/30 00:05:03;;;;;;;7.23;3.57;;;11.40;99.90;;;;;;5052384;28;20252;-72
2023/10/30 00:07:28;;;;;;;9.20;4.40;;;11.30;99.90;;;;;;5051969;28;20278;-72
2023/10/30 00:09:54;;;;;;;8.73;3.70;;;11.40;99.90;;;;;;5052319;28;20268;-73
2023/10/30 00:12:19;;;;;;;5.00;3.70;;;11.40;99.90;;;;;;5052140;28;20229;-73
2023/10/30 00:14:45;;;;;;;5.77;3.50;;;11.40;99.90;;;;;;5051924;28;20191;-72
2023/10/30 00:17:11;;;;;;;5.60;3.67;;;11.40;99.90;;;;;;5051946;28;20636;-73
2023/10/30 00:19:36;;;;;;;6.87;3.80;;;11.30;99.90;;;;;;5034438;28;20185;-72
2023/10/30 00:22:02;;;;;;;6.70;3.50;;;11.30;99.90;;;;;;5052151;28;20630;-71
2023/10/30 00:24:29;;;;;;;8.27;3.53;;;11.30;99.90;;;;;;5051611;28;20202;-72
2023/10/30 00:26:55;;;;;;;5.47;3.27;;;11.30;99.90;;;;;;5051927;28;20598;-71
2023/10/30 00:29:21;;;;;;;6.90;3.60;;;11.30;99.90;;;;;;5051920;28;20179;-72
2023/10/30 00:31:47;;;;;;;7.80;3.43;;;11.30;99.90;;;;;;5051744;28;20233;-71
2023/10/30 00:34:12;;;;;;;8.57;3.83;;;11.30;99.90;;;;;;5051813;28;20202;-72
2023/10/30 00:36:38;;;;;;;7.43;4.00;;;11.30;99.90;;;;;;5051480;28;20703;-71
2023/10/30 00:39:04;;;;;;;5.63;3.50;;;11.30;99.90;;;;;;5051989;28;20262;-71
2023/10/30 00:41:31;;;;;;;8.43;3.87;;;11.40;99.90;;;;;;5051893;28;20272;-72
2023/10/30 00:43:56;;;;;;;13.37;4.03;;;11.40;99.90;;;;;;5051486;28;20205;-72
2023/10/30 00:46:22;;;;;;;9.33;3.90;;;11.50;99.90;;;;;;5051259;28;20170;-71
2023/10/30 00:48:48;;;;;;;7.60;3.70;;;11.50;99.90;;;;;;5051736;28;20171;-72
2023/10/30 00:51:14;;;;;;;6.37;3.40;;;11.50;99.90;;;;;;5051815;28;20248;-71
2023/10/30 00:53:40;;;;;;;8.63;3.60;;;11.50;99.90;;;;;;5050967;28;20297;-72
2023/10/30 00:56:05;;;;;;;5.90;3.63;;;11.50;99.90;;;;;;5051215;28;20640;-73
2023/10/30 00:58:31;;;;;;;7.57;3.50;;;11.60;99.90;;;;;;5051324;28;20210;-73
2023/10/30 01:00:57;;;;;;;8.63;3.93;;;11.60;99.90;;;;;;5051408;28;20178;-72
2023/10/30 01:03:23;;;;;;;5.10;3.33;;;11.60;99.90;;;;;;5051251;28;20523;-73
2023/10/30 01:05:57;;;;;;;6.63;3.50;;;11.60;99.90;;;;;;5051310;28;20177;-73
2023/10/30 01:08:22;;;;;;;6.07;3.30;;;11.60;99.90;;;;;;5051175;28;20183;-71
2023/10/30 01:10:48;;;;;;;9.10;4.07;;;11.70;99.90;;;;;;5051380;28;20229;-72
2023/10/30 01:13:14;;;;;;;10.80;4.10;;;11.70;99.90;;;;;;5050397;28;20194;-72
2023/10/30 01:15:39;;;;;;;10.37;3.53;;;11.70;99.90;;;;;;5051119;28;20159;-71
2023/10/30 01:18:05;;;;;;;10.07;3.60;;;11.70;99.90;;;;;;5051197;28;20179;-72
2023/10/30 01:20:37;;;;;;;5.90;3.80;;;11.70;99.90;;;;;;5051208;28;20170;-71
2023/10/30 01:23:02;;;;;;;3.77;3.30;;;11.80;99.90;;;;;;5051638;28;20170;-72
2023/10/30 01:25:28;;;;;;;9.90;4.00;;;11.70;99.90;;;;;;5051178;28;20274;-71
2023/10/30 01:27:54;;;;;;;5.97;3.57;;;11.80;99.90;;;;;;5051159;28;20671;-72
2023/10/30 01:30:20;;;;;;;6.33;3.83;;;11.80;99.90;;;;;;5051145;28;20174;-71
2023/10/30 01:32:45;;;;;;;8.57;4.70;;;11.80;99.90;;;;;;5050829;28;20205;-72
2023/10/30 01:35:11;;;;;;;5.43;3.77;;;11.80;99.90;;;;;;5050940;28;20194;-72
2023/10/30 01:37:37;;;;;;;5.30;3.50;;;11.80;99.90;;;;;;5051109;28;20178;-72
2023/10/30 01:40:03;;;;;;;12.87;3.90;;;11.80;99.90;;;;;;5050853;28;20177;-73
2023/10/30 01:42:28;;;;;;;5.40;3.60;;;11.80;99.90;;;;;;5050923;28;20171;-73
2023/10/30 01:44:58;;;;;;;5.17;3.60;;;11.80;99.90;;;;;;5050455;28;20610;-73
2023/10/30 01:47:26;;;;;;;7.53;3.37;;;11.70;99.90;;;;;;5050912;28;20167;-72
2023/10/30 01:49:53;;;;;;;8.73;3.83;;;11.70;99.90;;;;;;5050828;28;20543;-71
2023/10/30 01:52:21;;;;;;;8.13;3.80;;;11.70;99.90;;;;;;5050515;28;20190;-72
2023/10/30 01:54:48;;;;;;;8.63;3.60;;;11.70;99.90;;;;;;5050768;28;20228;-72
2023/10/30 01:57:15;;;;;;;7.17;4.23;;;11.70;99.90;;;;;;5050648;28;20159;-72
2023/10/30 01:59:41;;;;;;;13.73;4.27;;;11.70;99.90;;;;;;5050756;28;20659;-71
2023/10/30 02:02:07;;;;;;;11.00;4.03;;;11.70;99.90;;;;;;5050705;28;20212;-73
2023/10/30 02:04:33;;;;;;;7.37;3.30;;;11.70;99.90;;;;;;5050541;28;20631;-72
2023/10/30 02:06:59;;;;;;;7.67;3.80;;;11.70;99.90;;;;;;5033001;28;20181;-71
2023/10/30 02:09:25;;;;;;;4.27;3.70;;;11.70;99.90;;;;;;5050491;28;20175;-72
2023/10/30 02:11:50;;;;;;;10.30;3.20;;;11.70;99.90;;;;;;5032629;28;20544;-72
2023/10/30 02:14:16;;;;;;;9.43;4.07;;;11.70;99.90;;;;;;5050712;28;20211;-71
2023/10/30 02:16:41;;;;;;;11.53;3.97;;;11.70;99.90;;;;;;5050654;28;20607;-72
2023/10/30 02:19:14;;;;;;;6.90;3.53;;;11.70;99.90;;;;;;5050548;28;20175;-72
2023/10/30 02:21:40;;;;;;;9.10;3.50;;;11.70;99.90;;;;;;5051129;28;20714;-71
2023/10/30 02:24:06;;;;;;;5.83;3.40;;;11.70;99.90;;;;;;5051014;28;20195;-73
2023/10/30 02:26:32;;;;;;;7.93;3.90;;;11.70;99.90;;;;;;5054221;28;20190;-71
2023/10/30 02:29:01;;;;;;;7.23;3.40;;;11.70;99.90;;;;;;5054620;28;20656;-71
2023/10/30 02:31:26;;;;;;;7.00;3.80;;;11.70;99.90;;;;;;5054234;28;20228;-74
2023/10/30 02:33:52;;;;;;;10.17;4.03;;;11.70;99.90;;;;;;5053869;28;20671;-74
2023/10/30 02:36:18;;;;;;;5.30;3.00;;;11.70;99.90;;;;;;5054098;28;20175;-71
2023/10/30 02:38:43;;;;;;;7.80;3.37;;;11.70;99.90;;;;;;5053883;28;20232;-72
2023/10/30 02:41:09;;;;;;;8.10;3.60;;;11.70;99.90;;;;;;5054453;28;20179;-72
2023/10/30 02:43:34;;;;;;;10.00;4.27;;;11.60;99.90;;;;;;5054183;28;20635;-72
2023/10/30 02:46:00;;;;;;;12.33;4.00;;;11.60;99.90;;;;;;5053523;28;20190;-71
2023/10/30 02:48:25;;;;;;;8.10;3.50;;;11.60;99.90;;;;;;5053871;28;20737;-71
2023/10/30 02:50:51;;;;;;;9.57;4.03;;;11.60;99.90;;;;;;5054242;28;20194;-72
2023/10/30 02:53:16;;;;;;;6.10;3.23;;;11.60;99.90;;;;;;5053562;28;20587;-72
2023/10/30 02:55:43;;;;;;;7.00;3.40;;;11.50;99.90;;;;;;5053525;28;20167;-72
2023/10/30 02:58:09;;;;;;;6.80;4.00;;;11.50;99.90;;;;;;5053585;28;20173;-71
2023/10/30 03:00:34;;;;;;;10.93;10.07;;;11.50;99.90;;;;;;5053767;28;20175;-72
2023/10/30 03:03:00;;;;;;;11.23;3.73;;;11.50;99.90;;;;;;5053882;28;20178;-72
2023/10/30 03:05:25;;;;;;;9.43;3.70;;;11.50;99.90;;;;;;5053119;28;20288;-73
2023/10/30 03:07:51;;;;;;;6.10;4.10;;;11.50;99.90;;;;;;5053960;28;20197;-72
2023/10/30 03:10:16;;;;;;;5.60;3.77;;;11.50;99.90;;;;;;5053871;28;20209;-72
2023/10/30 03:12:42;;;;;;;6.00;3.70;;;11.50;99.90;;;;;;5054023;28;20561;-72
2023/10/30 03:15:08;;;;;;;8.57;3.83;;;11.50;99.90;;;;;;5053950;28;20588;-72
2023/10/30 03:17:33;;;;;;;7.50;4.00;;;11.50;99.90;;;;;;5053588;28;20640;-72
2023/10/30 03:19:59;;;;;;;6.70;3.97;;;11.40;99.90;;;;;;5053442;28;20167;-72
2023/10/30 03:22:25;;;;;;;6.03;3.60;;;11.40;99.90;;;;;;5053194;28;20228;-72
2023/10/30 03:24:51;;;;;;;7.13;3.80;;;11.40;99.90;;;;;;5053345;28;20577;-73
2023/10/30 03:27:16;;;;;;;6.23;3.50;;;11.40;99.90;;;;;;5053250;28;20190;-73
2023/10/30 03:29:42;;;;;;;8.67;3.80;;;11.30;99.90;;;;;;5053328;28;20540;-71
2023/10/30 03:32:07;;;;;;;8.60;3.77;;;11.30;99.90;;;;;;5053220;28;20167;-72
2023/10/30 03:34:34;;;;;;;8.27;4.03;;;11.20;99.90;;;;;;5052749;28;20260;-72
2023/10/30 03:37:00;;;;;;;8.67;4.27;;;11.20;99.90;;;;;;5052354;28;20644;-71
2023/10/30 03:39:26;;;;;;;10.13;4.20;;;11.20;99.90;;;;;;5053183;28;20170;-71
2023/10/30 03:41:51;;;;;;;8.23;4.20;;;11.20;99.90;;;;;;5053403;28;20983;-73
2023/10/30 03:44:19;;;;;;;9.97;3.90;;;11.10;99.90;;;;;;5052741;28;20217;-72
2023/10/30 03:46:45;;;;;;;9.10;4.07;;;11.10;99.90;;;;;;5052728;28;20740;-72
2023/10/30 03:49:10;;;;;;;8.57;4.23;;;11.10;99.90;;;;;;5053123;28;20166;-73
2023/10/30 03:51:36;;;;;;;11.73;4.00;;;11.10;99.90;;;;;;5052933;28;20171;-73
2023/10/30 03:54:01;;;;;;;8.23;4.40;;;11.10;99.90;;;;;;5052673;28;20713;-72
2023/10/30 03:56:27;;;;;;;9.07;4.10;;;11.10;99.90;;;;;;5052498;28;20229;-72
2023/10/30 03:58:53;;;;;;;7.53;3.60;;;11.10;99.90;;;;;;5053040;28;20174;-72
2023/10/30 04:01:18;;;;;;;4.90;3.93;;;11.10;99.90;;;;;;5052453;28;20182;-72
2023/10/30 04:03:44;;;;;;;10.90;4.27;;;11.20;99.90;;;;;;5052692;28;20679;-72
2023/10/30 04:06:09;;;;;;;13.20;3.93;;;11.10;99.90;;;;;;5052282;28;20183;-72
2023/10/30 04:08:35;;;;;;;9.73;4.27;;;11.10;99.90;;;;;;5052193;28;20186;-72
2023/10/30 04:11:08;;;;;;;6.00;4.00;;;11.10;99.90;;;;;;5052759;28;20174;-72
2023/10/30 04:13:34;;;;;;;7.37;4.23;;;11.10;99.90;;;;;;5052346;28;20260;-72
2023/10/30 04:15:59;;;;;;;7.33;3.97;;;11.20;99.90;;;;;;5052217;28;20684;-72
2023/10/30 04:18:25;;;;;;;15.13;4.63;;;11.20;99.90;;;;;;5052329;28;20167;-72
2023/10/30 04:20:51;;;;;;;8.27;4.30;;;11.10;99.90;;;;;;5052634;28;20248;-72
2023/10/30 04:23:16;;;;;;;10.00;4.20;;;11.10;99.90;;;;;;5052692;28;20183;-72
2023/10/30 04:25:42;;;;;;;12.90;5.23;;;11.10;99.90;;;;;;5052201;28;20170;-72
2023/10/30 04:28:07;;;;;;;7.50;4.00;;;11.10;99.90;;;;;;5052066;28;20183;-72
2023/10/30 04:30:33;;;;;;;9.60;4.13;;;11.10;99.90;;;;;;5051993;28;20557;-73
2023/10/30 04:33:00;;;;;;;10.77;4.70;;;11.10;99.90;;;;;;5052128;28;20206;-74
2023/10/30 04:35:25;;;;;;;9.03;4.97;;;11.10;99.90;;;;;;5051560;28;20198;-73
2023/10/30 04:37:51;;;;;;;9.50;4.57;;;11.10;99.90;;;;;;5052059;28;20171;-73
2023/10/30 04:40:17;;;;;;;10.20;4.63;;;11.10;99.90;;;;;;5051675;28;20253;-72
2023/10/30 04:42:43;;;;;;;10.87;4.07;;;11.10;99.90;;;;;;5051958;28;20182;-71
2023/10/30 04:45:09;;;;;;;7.67;3.97;;;11.10;99.90;;;;;;5051597;28;20194;-72
2023/10/30 04:47:34;;;;;;;9.50;3.97;;;11.10;99.90;;;;;;5051895;28;20258;-72
2023/10/30 04:50:00;;;;;;;9.63;4.60;;;11.10;99.90;;;;;;5052015;28;20613;-72
2023/10/30 04:52:25;;;;;;;7.27;4.10;;;11.20;99.90;;;;;;5051814;28;20187;-72
2023/10/30 04:54:51;;;;;;;10.43;4.50;;;11.10;99.90;;;;;;5051736;28;20266;-72
2023/10/30 04:57:17;;;;;;;13.13;4.20;;;11.20;99.90;;;;;;5050977;28;20729;-72
2023/10/30 04:59:42;;;;;;;8.20;3.93;;;11.20;99.90;;;;;;5051892;28;20177;-71
2023/10/30 05:02:08;;;;;;;6.80;4.47;;;11.20;99.90;;;;;;5051776;28;20707;-71
2023/10/30 05:04:33;;;;;;;7.60;4.10;;;11.20;99.90;;;;;;5051617;28;20194;-72
2023/10/30 05:06:59;;;;;;;8.30;5.07;;;11.20;99.90;;;;;;5051936;28;20644;-71
2023/10/30 05:09:25;;;;;;;8.13;3.93;;;11.30;99.90;;;;;;5051393;28;20258;-72
2023/10/30 05:11:50;;;;;;;8.23;4.13;;;11.30;99.90;;;;;;5051216;28;20170;-72
2023/10/30 05:14:16;;;;;;;8.37;4.63;;;11.30;99.90;;;;;;5050988;28;20214;-72
2023/10/30 05:16:41;;;;;;;11.40;4.00;;;11.30;99.90;;;;;;5050955;28;20174;-72
2023/10/30 05:19:07;;;;;;;11.53;4.47;;;11.30;99.90;;;;;;5051508;28;20175;-71
2023/10/30 05:21:33;;;;;;;7.10;4.47;;;11.40;99.90;;;;;;5051736;28;20171;-72
2023/10/30 05:23:58;;;;;;;8.43;4.60;;;11.40;99.90;;;;;;5050806;28;20230;-72
2023/10/30 05:26:24;;;;;;;8.13;4.20;;;11.40;99.90;;;;;;5050703;28;20202;-72
2023/10/30 05:28:49;;;;;;;8.63;4.03;;;11.40;99.90;;;;;;5051274;28;20179;-72
2023/10/30 05:31:15;;;;;;;8.87;4.00;;;11.40;99.90;;;;;;5051144;28;20203;-71
2023/10/30 05:33:41;;;;;;;7.77;3.90;;;11.40;99.90;;;;;;5050968;28;20209;-72
2023/10/30 05:36:06;;;;;;;7.57;4.00;;;11.40;99.90;;;;;;5050711;28;20171;-71
2023/10/30 05:38:32;;;;;;;7.13;4.30;;;11.40;99.90;;;;;;5051182;28;20233;-73
2023/10/30 05:40:58;;;;;;;8.17;4.10;;;11.40;99.90;;;;;;5051101;28;20265;-72
2023/10/30 05:43:23;;;;;;;7.83;3.90;;;11.30;99.90;;;;;;5050931;28;20179;-72
2023/10/30 05:45:49;;;;;;;8.47;4.60;;;11.30;99.90;;;;;;5050874;28;20193;-72
2023/10/30 05:48:16;;;;;;;8.10;4.10;;;11.30;99.90;;;;;;5051044;28;20249;-71
2023/10/30 05:50:42;;;;;;;5.43;3.80;;;11.30;99.90;;;;;;5050844;28;20277;-71
2023/10/30 05:53:07;;;;;;;6.53;4.30;;;11.30;99.90;;;;;;5050955;28;20268;-71
2023/10/30 05:55:33;;;;;;;9.10;3.90;;;11.30;99.90;;;;;;5050610;28;20575;-71
2023/10/30 05:57:59;;;;;;;7.73;3.83;;;11.30;99.90;;;;;;5050615;28;20167;-72
2023/10/30 06:00:24;;;;;;;10.40;3.90;;;11.30;99.90;;;;;;5052957;28;20170;-72
2023/10/30 06:02:51;;;;;;;7.07;4.10;;;11.30;99.90;;;;;;5055418;28;20198;-72
2023/10/30 06:05:16;;;;;;;7.73;4.10;;;11.20;99.90;;;;;;5055099;28;20782;-72
2023/10/30 06:07:42;;;;;;;7.87;3.80;;;11.20;99.90;;;;;;5054486;28;20261;-72
2023/10/30 06:10:10;;;;;;;7.77;4.27;;;11.20;99.90;;;;;;5054649;28;20240;-72
2023/10/30 06:12:37;;;;;;;7.40;4.07;;;11.20;99.90;;;;;;5054720;28;20183;-72
2023/10/30 06:15:04;;;;;;;6.80;3.80;;;11.20;99.90;;;;;;5054467;28;20195;-72
2023/10/30 06:17:29;;;;;;;8.70;3.93;;;11.20;99.90;;;;;;5054271;28;20544;-72
2023/10/30 06:19:55;;;;;;;9.50;4.20;;;11.20;99.90;;;;;;5054602;28;20175;-72
2023/10/30 06:22:21;;;;;;;7.67;4.27;;;11.30;99.90;;;;;;5054347;28;20167;-72
2023/10/30 06:24:47;;;;;;;9.70;4.47;;;11.20;99.90;;;;;;5054199;28;20202;-71
2023/10/30 06:27:13;;;;;;;7.77;4.17;;;11.20;99.90;;;;;;5054220;28;20209;-72
2023/10/30 06:29:39;;;;;;;10.60;4.67;;;11.20;99.90;;;;;;5054197;28;20632;-72
2023/10/30 06:32:06;;;;;;;8.97;4.13;;;11.20;99.90;;;;;;5054264;28;20182;-72
2023/10/30 06:34:38;;;;;;;10.53;5.23;;;11.20;99.90;;;;;;5053943;28;20232;-72
2023/10/30 06:37:04;;;;;;;9.27;4.20;;;11.20;99.90;;;;;;5054176;28;20163;-72
2023/10/30 06:39:29;;;;;;;11.20;4.50;;;11.10;99.90;;;;;;5053944;28;20202;-72
2023/10/30 06:41:56;;;;;;;7.27;4.40;;;11.10;99.90;;;;;;5053914;28;20586;-72
2023/10/30 06:44:25;;;;;;;7.23;3.87;;;11.10;99.90;;;;;;5053442;28;20195;-72
2023/10/30 06:46:51;;;;;;;8.40;4.60;;;11.10;99.90;;;;;;5053672;28;20291;-71
2023/10/30 06:49:17;;;;;;;7.90;3.93;;;11.00;99.90;;;;;;5053771;28;20171;-72
2023/10/30 06:51:43;;;;;;;10.47;5.27;;;11.00;99.90;;;;;;5053244;28;20167;-71
2023/10/30 06:54:12;;;;;;;10.13;4.20;;;11.10;99.90;;;;;;5053309;28;20209;-72
2023/10/30 06:56:38;;;;;;;6.40;3.87;;;11.10;99.90;;;;;;5053291;28;20194;-72
2023/10/30 06:59:03;;;;;;;7.93;4.80;;;11.10;99.90;;;;;;5053699;28;20177;-72
2023/10/30 07:01:39;;;;;;;10.03;4.10;;;11.10;99.90;;;;;;5042982;28;20175;-72
2023/10/30 07:04:05;;;;;;;8.73;4.40;;;11.10;99.90;;;;;;5034367;28;20226;-72
2023/10/30 07:06:30;;;;;;;9.83;4.57;;;11.10;99.90;;;;;;5015212;28;20195;-71
2023/10/30 07:08:56;;;;;;;9.07;4.90;;;11.10;99.90;;;;;;5052136;28;20700;-72
2023/10/30 07:11:22;;;;;;;10.50;5.03;;;11.10;99.90;;;;;;5052930;28;20214;-72
2023/10/30 07:13:48;;;;;;;5.37;4.37;;;11.10;99.90;;;;;;5053104;28;20256;-72
2023/10/30 07:16:13;;;;;;;7.83;4.57;;;11.20;99.90;;;;;;5052766;28;20628;-72
2023/10/30 07:18:39;;;;;;;8.27;4.40;;;11.20;99.90;;;;;;5053108;28;20171;-72
2023/10/30 07:21:05;;;;;;;8.30;4.80;;;11.20;99.90;;;;;;5053323;28;20177;-72
2023/10/30 07:23:30;;;;;;;8.43;4.60;;;11.30;99.90;;;;;;5052753;28;20194;-72
2023/10/30 07:25:56;;;;;;;6.80;4.60;;;11.30;99.90;;;;;;5052724;28;20191;-73
2023/10/30 07:28:21;;;;;;;9.83;4.10;;;11.30;99.90;;;;;;5052363;28;20179;-73
2023/10/30 07:30:47;;;;;;;5.57;3.73;;;11.40;99.90;;;;;;5053058;28;20205;-72
2023/10/30 07:33:13;;;;;;;12.87;5.03;;;11.40;99.90;;;;;;5052789;28;20580;-72
2023/10/30 07:35:38;;;;;;;12.27;4.63;;;11.50;99.90;;;;;;5052814;28;20186;-73
2023/10/30 07:38:04;;;;;;;9.00;4.20;;;11.60;99.90;;;;;;5052652;28;20263;-72
2023/10/30 07:40:29;;;;;;;12.17;4.20;;;11.70;99.90;;;;;;5052287;28;20171;-72
2023/10/30 07:42:55;;;;;;;7.57;4.23;;;11.80;99.90;;;;;;5052736;28;20170;-73
2023/10/30 07:45:21;;;;;;;9.13;3.80;;;12.00;99.90;;;;;;5052097;28;20195;-72
2023/10/30 07:47:47;;;;;;;7.93;3.73;;;12.20;99.90;;;;;;5052731;28;20254;-72
2023/10/30 07:50:12;;;;;;;22.07;4.70;;;12.40;99.90;;;;;;5052482;28;20220;-72
2023/10/30 07:52:38;;;;;;;9.53;3.70;;;12.60;99.90;;;;;;5051669;28;20194;-73
2023/10/30 07:55:05;;;;;;;5.47;3.87;;;12.90;99.90;;;;;;5052118;28;20610;-72
2023/10/30 07:57:31;;;;;;;4.00;3.63;;;13.20;99.90;;;;;;5034220;28;20191;-72
2023/10/30 07:59:57;;;;;;;5.70;3.30;;;13.50;99.90;;;;;;5052422;28;20159;-72
2023/10/30 08:02:22;;;;;;;6.37;3.30;;;13.60;99.90;;;;;;5051669;28;20182;-72
2023/10/30 08:04:48;;;;;;;4.53;3.40;;;13.80;99.90;;;;;;5052031;28;20191;-72
2023/10/30 08:07:13;;;;;;;7.33;3.83;;;13.90;99.90;;;;;;5052100;28;20551;-71
2023/10/30 08:09:39;;;;;;;9.93;3.40;;;14.00;99.90;;;;;;5051899;28;20179;-72
2023/10/30 08:12:05;;;;;;;9.90;3.63;;;14.00;99.90;;;;;;5052103;28;20174;-72
2023/10/30 08:14:30;;;;;;;6.77;4.20;;;14.10;99.90;;;;;;5051615;28;20285;-71
2023/10/30 08:16:56;;;;;;;4.07;3.57;;;14.10;99.90;;;;;;5052190;28;20624;-72
2023/10/30 08:19:22;;;;;;;10.10;4.00;;;14.20;99.90;;;;;;5051882;28;20163;-73
2023/10/30 08:21:47;;;;;;;6.00;3.80;;;14.20;99.90;;;;;;5051470;28;20174;-72
2023/10/30 08:24:14;;;;;;;11.57;4.30;;;14.20;99.90;;;;;;5051358;28;20187;-72
2023/10/30 08:26:39;;;;;;;7.07;3.90;;;14.20;99.90;;;;;;5051322;28;20300;-72
2023/10/30 08:29:05;;;;;;;5.30;3.47;;;14.10;99.90;;;;;;5051689;28;20218;-72
2023/10/30 08:31:30;;;;;;;6.97;4.00;;;14.20;99.90;;;;;;5051578;28;20242;-73
2023/10/30 08:34:00;;;;;;;5.13;3.80;;;14.20;99.90;;;;;;5051610;28;20616;-72
2023/10/30 08:36:26;;;;;;;10.73;4.10;;;14.30;99.90;;;;;;5050727;28;20254;-72
2023/10/30 08:38:52;;;;;;;8.00;3.77;;;14.50;99.90;;;;;;5050926;28;20257;-73
2023/10/30 08:41:19;;;;;;;11.07;3.87;;;14.60;99.90;;;;;;5051596;28;20258;-73
2023/10/30 08:43:45;;;;;;;5.03;3.67;;;14.60;99.90;;;;;;5051098;28;20194;-72
2023/10/30 08:46:16;;;;;;;8.60;4.43;;;14.80;99.90;;;;;;5051115;28;20652;-72
2023/10/30 08:48:42;;;;;;;6.83;4.27;;;14.80;99.90;;;;;;5051410;28;20601;-72
2023/10/30 08:51:08;;;;;;;6.03;3.77;;;14.80;99.90;;;;;;5051365;28;20202;-71
2023/10/30 08:53:35;;;;;;;3.90;3.60;;;14.80;99.90;;;;;;5050968;28;20210;-72
2023/10/30 08:56:00;;;;;;;5.27;3.73;;;14.90;99.90;;;;;;5051157;28;20167;-72
2023/10/30 08:58:26;;;;;;;5.70;3.80;;;14.90;99.90;;;;;;5051140;28;20185;-72
2023/10/30 09:00:51;;;;;;;8.83;4.20;;;14.90;99.90;;;;;;5051424;28;20171;-71
2023/10/30 09:03:17;;;;;;;6.10;3.73;;;14.90;99.90;;;;;;5051036;28;20187;-72
2023/10/30 09:05:42;;;;;;;4.67;3.30;;;15.00;99.90;;;;;;5050910;28;20259;-72
2023/10/30 09:08:08;;;;;;;6.37;3.70;;;14.90;99.90;;;;;;5051299;28;20178;-72
2023/10/30 09:10:34;;;;;;;5.00;3.50;;;15.00;99.90;;;;;;5051006;28;20167;-72
2023/10/30 09:13:00;;;;;;;6.77;3.20;;;15.00;99.90;;;;;;5051215;28;20199;-72
2023/10/30 09:15:26;;;;;;;4.93;3.47;;;15.00;99.90;;;;;;5051024;28;20187;-71
2023/10/30 09:17:52;;;;;;;3.43;3.07;;;15.00;99.90;;;;;;5051010;28;20167;-72
2023/10/30 09:20:18;;;;;;;3.73;3.17;;;15.10;99.90;;;;;;5050734;28;20189;-72
2023/10/30 09:22:43;;;;;;;3.40;3.00;;;15.10;99.90;;;;;;5050803;28;20170;-72
2023/10/30 09:25:09;;;;;;;3.87;2.80;;;15.20;99.90;;;;;;5050761;28;20272;-72
2023/10/30 09:27:35;;;;;;;5.40;3.50;;;15.20;99.90;;;;;;5050772;28;20182;-72
2023/10/30 09:30:00;;;;;;;4.30;3.00;;;15.30;99.90;;;;;;5050872;28;20170;-72
2023/10/30 09:32:26;;;;;;;4.43;3.20;;;15.30;99.90;;;;;;5050886;28;20174;-72
2023/10/30 09:34:52;;;;;;;6.77;3.10;;;15.30;99.90;;;;;;5051945;28;20257;-72
2023/10/30 09:37:17;;;;;;;4.60;3.10;;;15.40;99.90;;;;;;5055267;28;20163;-72
2023/10/30 09:39:44;;;;;;;3.40;3.10;;;15.40;99.90;;;;;;5054903;28;20935;-72
2023/10/30 09:42:10;;;;;;;4.53;3.27;;;15.40;99.90;;;;;;5055246;28;20674;-72
2023/10/30 09:44:35;;;;;;;3.30;2.80;;;15.50;99.90;;;;;;5054301;28;20195;-72
2023/10/30 09:47:02;;;;;;;4.07;2.87;;;15.60;99.90;;;;;;5054639;28;20547;-72
2023/10/30 09:49:29;;;;;;;3.03;2.83;;;15.70;99.90;;;;;;5054731;28;20262;-73
2023/10/30 09:51:59;;;;;;;2.97;2.67;;;15.80;99.90;;;;;;5054761;28;20258;-73
2023/10/30 09:54:25;;;;;;;4.07;2.70;;;15.90;99.90;;;;;;5054255;28;20210;-72
2023/10/30 09:56:51;;;;;;;3.37;2.60;;;16.00;99.90;;;;;;5054564;28;20171;-72
2023/10/30 09:59:17;;;;;;;4.63;3.03;;;16.10;99.90;;;;;;5054769;28;20228;-72
2023/10/30 10:01:43;;;;;;;6.23;3.00;;;16.20;99.90;;;;;;5054223;28;20633;-72
2023/10/30 10:04:09;;;;;;;5.40;2.83;;;16.30;99.90;;;;;;5054670;28;20193;-71
2023/10/30 10:06:34;;;;;;;4.27;3.10;;;16.40;99.90;;;;;;5053682;28;20183;-73
2023/10/30 10:09:04;;;;;;;4.30;3.00;;;16.40;99.90;;;;;;5054400;28;20183;-72
2023/10/30 10:11:33;;;;;;;4.63;3.33;;;16.40;99.90;;;;;;5053845;28;20174;-72
2023/10/30 10:13:59;;;;;;;5.60;5.27;;;16.50;99.90;;;;;;5054158;28;20234;-72
2023/10/30 10:16:31;;;;;;;3.10;2.90;;;16.40;99.90;;;;;;5054017;28;20202;-72
2023/10/30 10:18:57;;;;;;;3.87;3.00;;;16.50;99.90;;;;;;5054372;28;20167;-72
2023/10/30 10:21:22;;;;;;;2.87;2.60;;;16.60;99.90;;;;;;5054100;28;20190;-72
2023/10/30 10:23:48;;;;;;;2.87;2.63;;;16.60;99.90;;;;;;5053994;28;20195;-72
2023/10/30 10:26:14;;;;;;;2.87;2.60;;;16.70;99.90;;;;;;5053667;28;20690;-72
2023/10/30 10:28:47;;;;;;;3.30;3.00;;;16.90;99.90;;;;;;5054145;28;20232;-72
2023/10/30 10:31:14;;;;;;;3.20;2.97;;;17.00;99.90;;;;;;5054392;28;20538;-72
2023/10/30 10:33:40;;;;;;;2.60;2.40;;;17.20;99.90;;;;;;5053845;28;20217;-72
2023/10/30 10:36:06;;;;;;;2.63;2.40;;;17.30;99.90;;;;;;5053781;28;20256;-72
2023/10/30 10:38:32;;;;;;;2.70;2.20;;;17.50;99.90;;;;;;5054061;28;20178;-73
2023/10/30 10:40:58;;;;;;;2.93;2.73;;;17.60;99.90;;;;;;5054004;28;20175;-72
2023/10/30 10:43:28;;;;;;;3.17;2.30;;;17.60;99.90;;;;;;5053922;28;20202;-72
2023/10/30 10:45:56;;;;;;;2.80;2.60;;;17.60;99.90;;;;;;5053312;28;20167;-72
2023/10/30 10:48:24;;;;;;;3.07;2.17;;;17.50;99.90;;;;;;5052430;28;20178;-71
2023/10/30 10:50:50;;;;;;;4.00;3.60;;;17.40;99.90;;;;;;5033908;28;20259;-70
2023/10/30 10:53:20;;;;;;;2.70;2.50;;;17.30;99.90;;;;;;5033916;28;20290;-70
2023/10/30 10:55:50;;;;;;;2.50;2.30;;;17.10;99.90;;;;;;5033401;28;20604;-71
2023/10/30 10:58:38;;;;;;;3.07;2.87;;;17.00;99.90;;;;;;5033697;28;20214;-71
2023/10/30 11:01:06;;;;;;;3.30;2.83;;;16.90;99.90;;;;;;5033751;28;20199;-71
2023/10/30 11:03:32;;;;;;;3.73;3.53;;;16.80;99.90;;;;;;5036650;28;20199;-73
2023/10/30 11:05:58;;;;;;;3.73;3.47;;;16.70;99.90;;;;;;5052864;28;20249;-71
2023/10/30 11:08:48;;;;;;;3.43;3.17;;;16.50;99.90;;;;;;5052873;28;20186;-71
2023/10/30 11:11:16;;;;;;;3.47;2.90;;;16.50;99.90;;;;;;5053456;28;20171;-71
2023/10/30 11:13:54;;;;;;;2.70;2.50;;;16.40;99.90;;;;;;5053142;28;20206;-71
2023/10/30 11:16:26;;;;;;;3.27;2.97;;;16.40;99.90;;;;;;5052915;28;20171;-72
2023/10/30 11:18:52;;;;;;;3.97;3.67;;;16.30;99.90;;;;;;5052760;28;20514;-71
2023/10/30 11:21:17;;;;;;;3.10;2.90;;;16.30;99.90;;;;;;5053315;28;20233;-71
2023/10/30 11:23:52;;;;;;;2.93;2.60;;;16.20;99.90;;;;;;5052951;28;20202;-71
2023/10/30 11:26:30;;;;;;;5.07;3.30;;;16.20;99.90;;;;;;5053008;28;20713;-71
2023/10/30 11:28:57;;;;;;;4.03;3.73;;;16.20;99.90;;;;;;5052995;28;20325;-71
2023/10/30 11:31:24;;;;;;;5.57;2.87;;;16.20;99.90;;;;;;5053200;28;20202;-71
2023/10/30 11:33:50;;;;;;;3.63;3.33;;;16.20;99.90;;;;;;5052532;28;20218;-71
2023/10/30 11:36:21;;;;;;;5.70;3.13;;;16.20;99.90;;;;;;5050930;28;20648;-71
2023/10/30 11:38:58;;;;;;;4.83;3.47;;;16.30;99.90;;;;;;5052242;28;20276;-71
2023/10/30 11:41:24;;;;;;;3.60;3.10;;;16.40;99.90;;;;;;5052558;28;20174;-71
2023/10/30 11:43:50;;;;;;;4.67;3.40;;;16.50;99.90;;;;;;5052358;28;20229;-71
2023/10/30 11:46:21;;;;;;;3.50;3.20;;;16.60;99.90;;;;;;5052563;28;20206;-71
2023/10/30 11:48:48;;;;;;;3.57;3.27;;;16.70;99.90;;;;;;5052628;28;20178;-71
2023/10/30 11:51:14;;;;;;;3.50;3.20;;;16.90;99.90;;;;;;5053031;28;20659;-71
2023/10/30 11:53:42;;;;;;;4.60;3.37;;;17.20;99.90;;;;;;5052324;28;20210;-71
2023/10/30 11:56:08;;;;;;;4.37;2.90;;;17.50;99.90;;;;;;5052412;28;20297;-71
2023/10/30 11:58:34;;;;;;;3.40;3.10;;;17.70;99.90;;;;;;5051247;28;20220;-71
2023/10/30 12:01:01;;;;;;;4.40;4.10;;;17.80;99.90;;;;;;5052214;28;20178;-71
2023/10/30 12:03:26;;;;;;;4.80;3.47;;;17.90;99.90;;;;;;5052251;28;20193;-72
2023/10/30 12:05:53;;;;;;;5.23;4.87;;;17.90;99.90;;;;;;5052063;28;20189;-72
2023/10/30 12:08:19;;;;;;;5.30;4.90;;;17.80;99.90;;;;;;5052230;28;20515;-71
2023/10/30 12:10:48;;;;;;;2.90;2.60;;;17.70;99.90;;;;;;5052230;28;20174;-71
2023/10/30 12:13:13;;;;;;;3.30;3.00;;;17.60;99.90;;;;;;5052314;28;20711;-71
2023/10/30 12:15:40;;;;;;;10.63;4.23;;;17.60;99.90;;;;;;5051929;28;20159;-73
2023/10/30 12:18:06;;;;;;;4.87;3.83;;;17.60;99.90;;;;;;5051887;28;20201;-72
2023/10/30 12:20:32;;;;;;;3.13;2.80;;;17.50;99.90;;;;;;5051953;28;20195;-71
2023/10/30 12:22:58;;;;;;;3.00;2.80;;;17.50;99.90;;;;;;5051901;28;20249;-73
2023/10/30 12:25:23;;;;;;;4.07;3.40;;;17.40;99.90;;;;;;5051833;28;20278;-73
2023/10/30 12:27:49;;;;;;;3.03;2.83;;;17.50;99.90;;;;;;5052048;28;20179;-73
2023/10/30 12:30:16;;;;;;;2.83;2.63;;;17.50;99.90;;;;;;5051908;28;20170;-73
2023/10/30 12:32:51;;;;;;;3.00;2.80;;;17.40;99.90;;;;;;5051730;28;20178;-73
2023/10/30 12:35:17;;;;;;;4.37;2.80;;;17.40;99.90;;;;;;5051440;28;20198;-73
2023/10/30 12:37:43;;;;;;;4.23;2.70;;;17.40;99.90;;;;;;5051499;28;20173;-73
2023/10/30 12:40:09;;;;;;;3.83;2.67;;;17.40;99.90;;;;;;5051777;28;20636;-72